Time;durP1;ratioP1;P1;durP2;ratioP2;P2;SDS_P1;SDS_P2;PMS_P1;PMS_P2;Temp;Humidity;BMP_temperature;BMP_pressure;BME280_temperature;BME280_humidity;BME280_pressure;Samples;Min_cycle;Max_cycle;Signal;HPM_P1;HPM_P2
2023/09/11 00:00:35;;;;;;;12.23;7.77;;;;;;;;;;5087187;28;20301;-66
2023/09/11 00:03:00;;;;;;;9.35;7.30;;;;;;;;;;5090828;28;20297;-66
2023/09/11 00:05:26;;;;;;;11.57;7.60;;;;;;;;;;5077312;28;20028;-66
2023/09/11 00:07:51;;;;;;;9.67;7.40;;;;;;;;;;5079856;28;20131;-66
2023/09/11 00:10:16;;;;;;;8.37;7.03;;;;;;;;;;5078417;28;20258;-66
2023/09/11 00:12:41;;;;;;;9.70;8.27;;;;;;;;;;5078236;28;20270;-67
2023/09/11 00:15:07;;;;;;;9.17;6.90;;;;;;;;;;5076950;28;20320;-67
2023/09/11 00:17:32;;;;;;;8.25;6.80;;;;;;;;;;5078067;28;20303;-67
2023/09/11 00:19:57;;;;;;;11.73;7.90;;;;;;;;;;5076814;28;20028;-67
2023/09/11 00:22:23;;;;;;;7.97;7.13;;;;;;;;;;5080697;28;20028;-67
2023/09/11 00:24:48;;;;;;;9.43;7.90;;;;;;;;;;5082317;28;20486;-66
2023/09/11 00:27:13;;;;;;;9.70;7.47;;;;;;;;;;5081531;28;20540;-67
2023/09/11 00:29:38;;;;;;;11.17;7.30;;;;;;;;;;5086897;28;20671;-66
2023/09/11 00:32:04;;;;;;;10.80;7.83;;;;;;;;;;5083756;28;20754;-66
2023/09/11 00:34:29;;;;;;;9.10;7.38;;;;;;;;;;5092643;28;20270;-67
2023/09/11 00:36:55;;;;;;;10.30;7.57;;;;;;;;;;5093414;28;20066;-66
2023/09/11 00:39:20;;;;;;;9.35;8.32;;;;;;;;;;5092890;28;20390;-66
2023/09/11 00:41:45;;;;;;;11.93;8.10;;;;;;;;;;5093499;28;20075;-66
2023/09/11 00:44:10;;;;;;;10.43;7.67;;;;;;;;;;5092686;28;20289;-66
2023/09/11 00:46:36;;;;;;;8.47;7.37;;;;;;;;;;5093564;28;20304;-66
2023/09/11 00:49:01;;;;;;;10.70;7.78;;;;;;;;;;5092856;28;20289;-66
2023/09/11 00:51:27;;;;;;;13.18;8.63;;;;;;;;;;5084431;28;20357;-67
2023/09/11 00:53:53;;;;;;;9.20;7.85;;;;;;;;;;5086051;28;20066;-67
2023/09/11 00:56:18;;;;;;;8.90;7.78;;;;;;;;;;5081257;28;20020;-67
2023/09/11 00:58:44;;;;;;;10.27;7.93;;;;;;;;;;5092229;28;20020;-67
2023/09/11 01:01:10;;;;;;;11.48;8.60;;;;;;;;;;5091683;28;20027;-67
2023/09/11 01:03:36;;;;;;;11.35;7.90;;;;;;;;;;5077459;28;20142;-67
2023/09/11 01:06:02;;;;;;;10.18;7.88;;;;;;;;;;5076362;28;20107;-67
2023/09/11 01:08:27;;;;;;;11.70;8.52;;;;;;;;;;5092137;28;20024;-66
2023/09/11 01:10:52;;;;;;;9.67;8.37;;;;;;;;;;5093039;28;20027;-67
2023/09/11 01:13:18;;;;;;;13.25;8.27;;;;;;;;;;5079251;28;20278;-66
2023/09/11 01:15:52;;;;;;;10.18;8.40;;;;;;;;;;5079865;28;20024;-67
2023/09/11 01:18:29;;;;;;;11.77;7.78;;;;;;;;;;5078883;28;20024;-66
2023/09/11 01:21:21;;;;;;;12.55;7.80;;;;;;;;;;5091143;28;20032;-67
2023/09/11 01:23:46;;;;;;;10.85;8.40;;;;;;;;;;5086459;28;20400;-67
2023/09/11 01:26:41;;;;;;;11.90;8.53;;;;;;;;;;5083572;28;20024;-66
2023/09/11 01:29:13;;;;;;;10.90;9.32;;;;;;;;;;5017537;28;20050;-67
2023/09/11 01:31:41;;;;;;;11.20;9.07;;;;;;;;;;5087047;28;20039;-67
2023/09/11 01:34:07;;;;;;;10.57;9.10;;;;;;;;;;5085650;28;20025;-67
2023/09/11 01:36:32;;;;;;;11.88;9.38;;;;;;;;;;5074650;28;20475;-67
2023/09/11 01:38:58;;;;;;;9.73;8.68;;;;;;;;;;5073646;28;20432;-67
2023/09/11 01:41:26;;;;;;;12.25;8.73;;;;;;;;;;5086490;28;20071;-67
2023/09/11 01:43:51;;;;;;;14.02;8.77;;;;;;;;;;5072759;28;20029;-67
2023/09/11 01:46:17;;;;;;;9.68;8.70;;;;;;;;;;5075394;28;20035;-67
2023/09/11 01:48:43;;;;;;;14.38;8.63;;;;;;;;;;5082640;28;20468;-67
2023/09/11 01:51:09;;;;;;;10.27;9.15;;;;;;;;;;5073461;28;20108;-67
2023/09/11 01:53:34;;;;;;;11.18;8.13;;;;;;;;;;5075877;28;20112;-67
2023/09/11 01:56:00;;;;;;;9.13;8.05;;;;;;;;;;5082666;28;20444;-67
2023/09/11 01:58:25;;;;;;;10.90;8.32;;;;;;;;;;5089784;28;20398;-67
2023/09/11 02:00:50;;;;;;;8.93;7.53;;;;;;;;;;5080456;28;20471;-67
2023/09/11 02:03:19;;;;;;;10.53;8.33;;;;;;;;;;5085890;28;20286;-67
2023/09/11 02:05:44;;;;;;;9.82;8.25;;;;;;;;;;5072452;28;20282;-67
2023/09/11 02:08:09;;;;;;;9.80;8.05;;;;;;;;;;5077624;28;20032;-67
2023/09/11 02:10:35;;;;;;;13.20;8.70;;;;;;;;;;5081975;28;20036;-67
2023/09/11 02:13:00;;;;;;;16.17;8.23;;;;;;;;;;5089179;28;20032;-67
2023/09/11 02:15:25;;;;;;;9.53;8.53;;;;;;;;;;5091006;28;20636;-67
2023/09/11 02:17:50;;;;;;;9.52;8.10;;;;;;;;;;5085324;28;20333;-67
2023/09/11 02:20:16;;;;;;;11.70;8.47;;;;;;;;;;5085705;28;20490;-67
2023/09/11 02:22:41;;;;;;;9.90;8.03;;;;;;;;;;5086942;28;20701;-67
2023/09/11 02:25:06;;;;;;;9.07;8.00;;;;;;;;;;5077350;28;20293;-67
2023/09/11 02:27:31;;;;;;;9.68;7.78;;;;;;;;;;5085866;28;20277;-67
2023/09/11 02:29:57;;;;;;;12.70;9.03;;;;;;;;;;5089906;28;20031;-67
2023/09/11 02:32:22;;;;;;;11.40;8.73;;;;;;;;;;5089131;28;20262;-67
2023/09/11 02:34:48;;;;;;;8.90;7.90;;;;;;;;;;5073375;28;20468;-67
2023/09/11 02:37:13;;;;;;;11.80;8.23;;;;;;;;;;5079295;28;20277;-67
2023/09/11 02:39:39;;;;;;;12.23;8.10;;;;;;;;;;5044914;28;20047;-66
2023/09/11 02:42:04;;;;;;;11.40;8.48;;;;;;;;;;5078180;28;20169;-67
2023/09/11 02:44:29;;;;;;;9.73;8.45;;;;;;;;;;5090689;28;20131;-67
2023/09/11 02:46:54;;;;;;;9.97;8.00;;;;;;;;;;5088235;28;20038;-67
2023/09/11 02:49:20;;;;;;;10.10;7.57;;;;;;;;;;5086303;28;20278;-67
2023/09/11 02:51:45;;;;;;;10.90;8.63;;;;;;;;;;5085206;28;20335;-67
2023/09/11 02:54:10;;;;;;;11.90;8.13;;;;;;;;;;5089618;28;20036;-67
2023/09/11 02:56:37;;;;;;;10.83;7.57;;;;;;;;;;5087085;28;20298;-67
2023/09/11 02:59:03;;;;;;;10.65;8.80;;;;;;;;;;5087675;28;20376;-67
2023/09/11 03:01:28;;;;;;;10.57;8.70;;;;;;;;;;5088251;28;20447;-68
2023/09/11 03:03:53;;;;;;;11.80;8.25;;;;;;;;;;5086662;28;20432;-67
2023/09/11 03:06:19;;;;;;;11.07;7.73;;;;;;;;;;5077857;28;20029;-67
2023/09/11 03:08:44;;;;;;;9.50;7.53;;;;;;;;;;5091335;28;20312;-68
2023/09/11 03:11:09;;;;;;;10.10;7.83;;;;;;;;;;5076044;28;20360;-67
2023/09/11 03:13:35;;;;;;;9.82;8.10;;;;;;;;;;5089400;28;20287;-67
2023/09/11 03:16:10;;;;;;;11.68;8.10;;;;;;;;;;5088700;28;20024;-67
2023/09/11 03:18:36;;;;;;;14.65;8.43;;;;;;;;;;5082983;28;20060;-67
2023/09/11 03:21:02;;;;;;;10.98;7.95;;;;;;;;;;5087130;28;20657;-68
2023/09/11 03:23:28;;;;;;;10.02;8.65;;;;;;;;;;5093080;28;20031;-68
2023/09/11 03:25:53;;;;;;;11.02;8.40;;;;;;;;;;5090035;28;20501;-68
2023/09/11 03:28:18;;;;;;;11.17;9.23;;;;;;;;;;5074938;28;20479;-68
2023/09/11 03:30:44;;;;;;;12.23;8.45;;;;;;;;;;5075947;28;20305;-68
2023/09/11 03:33:09;;;;;;;11.20;7.63;;;;;;;;;;5076531;28;20028;-68
2023/09/11 03:35:34;;;;;;;10.30;8.60;;;;;;;;;;5085695;28;20357;-68
2023/09/11 03:37:59;;;;;;;12.32;8.23;;;;;;;;;;5075623;28;20328;-68
2023/09/11 03:40:25;;;;;;;12.27;7.83;;;;;;;;;;5082469;28;20046;-68
2023/09/11 03:42:50;;;;;;;10.65;7.43;;;;;;;;;;5083921;28;20331;-68
2023/09/11 03:45:16;;;;;;;12.83;8.17;;;;;;;;;;5094519;28;20024;-67
2023/09/11 03:47:41;;;;;;;11.57;7.77;;;;;;;;;;5079541;28;20381;-66
2023/09/11 03:50:07;;;;;;;12.05;8.35;;;;;;;;;;5074285;28;20336;-67
2023/09/11 03:52:35;;;;;;;8.05;7.10;;;;;;;;;;5075287;28;20486;-68
2023/09/11 03:55:00;;;;;;;9.10;7.72;;;;;;;;;;5091836;28;20031;-68
2023/09/11 03:57:26;;;;;;;8.95;7.95;;;;;;;;;;5090748;28;20043;-68
2023/09/11 03:59:51;;;;;;;11.90;8.30;;;;;;;;;;5093326;28;20106;-68
2023/09/11 04:02:16;;;;;;;15.97;8.80;;;;;;;;;;5093537;28;20039;-68
2023/09/11 04:04:41;;;;;;;9.17;7.80;;;;;;;;;;5091438;28;20782;-68
2023/09/11 04:07:07;;;;;;;10.45;7.50;;;;;;;;;;5091138;28;20270;-68
2023/09/11 04:09:32;;;;;;;10.27;8.17;;;;;;;;;;5093812;28;20088;-68
2023/09/11 04:11:58;;;;;;;11.23;8.05;;;;;;;;;;5084944;28;20348;-68
2023/09/11 04:14:23;;;;;;;13.25;8.07;;;;;;;;;;5092194;28;20413;-68
2023/09/11 04:16:49;;;;;;;11.70;8.30;;;;;;;;;;5092763;28;20064;-68
2023/09/11 04:19:14;;;;;;;14.57;7.88;;;;;;;;;;5091833;28;20671;-68
2023/09/11 04:21:39;;;;;;;14.48;8.18;;;;;;;;;;5091757;28;20028;-68
2023/09/11 04:24:10;;;;;;;11.50;8.50;;;;;;;;;;5090907;28;20024;-68
2023/09/11 04:26:35;;;;;;;11.40;9.00;;;;;;;;;;5090067;28;20081;-68
2023/09/11 04:29:01;;;;;;;14.13;8.67;;;;;;;;;;5083699;28;20055;-68
2023/09/11 04:31:26;;;;;;;13.33;8.47;;;;;;;;;;5086983;28;20273;-68
2023/09/11 04:33:52;;;;;;;10.47;8.20;;;;;;;;;;5087093;28;20316;-66
2023/09/11 04:36:17;;;;;;;11.27;8.18;;;;;;;;;;5088404;28;20292;-68
2023/09/11 04:38:42;;;;;;;11.60;7.93;;;;;;;;;;5087497;28;20428;-66
2023/09/11 04:41:07;;;;;;;14.33;8.73;;;;;;;;;;5091875;28;20393;-67
2023/09/11 04:43:33;;;;;;;12.00;7.95;;;;;;;;;;5091626;28;20282;-67
2023/09/11 04:45:58;;;;;;;11.63;8.10;;;;;;;;;;5092457;28;20020;-67
2023/09/11 04:48:23;;;;;;;15.25;9.13;;;;;;;;;;5091008;28;20061;-67
2023/09/11 04:50:48;;;;;;;13.27;8.15;;;;;;;;;;5093017;28;20024;-67
2023/09/11 04:53:14;;;;;;;13.55;8.35;;;;;;;;;;5090509;28;20024;-67
2023/09/11 04:55:39;;;;;;;11.68;7.88;;;;;;;;;;5081719;28;20016;-67
2023/09/11 04:58:04;;;;;;;12.93;9.05;;;;;;;;;;5073313;28;20016;-67
2023/09/11 05:00:30;;;;;;;11.52;8.95;;;;;;;;;;5087278;28;20025;-67
2023/09/11 05:02:55;;;;;;;13.30;8.37;;;;;;;;;;5083018;28;20475;-67
2023/09/11 05:05:20;;;;;;;14.50;7.82;;;;;;;;;;5082764;28;20789;-66
2023/09/11 05:07:45;;;;;;;10.57;8.20;;;;;;;;;;5084679;28;20491;-66
2023/09/11 05:10:14;;;;;;;10.60;8.13;;;;;;;;;;5092786;28;20020;-66
2023/09/11 05:12:39;;;;;;;10.02;8.55;;;;;;;;;;5091327;28;20689;-66
2023/09/11 05:15:05;;;;;;;11.82;8.73;;;;;;;;;;5061299;28;20099;-66
2023/09/11 05:17:30;;;;;;;11.77;8.98;;;;;;;;;;5091740;28;20596;-68
2023/09/11 05:19:55;;;;;;;9.35;8.00;;;;;;;;;;5083864;28;20470;-67
2023/09/11 05:22:20;;;;;;;13.70;9.20;;;;;;;;;;5088609;28;20063;-68
2023/09/11 05:24:46;;;;;;;11.33;8.13;;;;;;;;;;5080513;28;20047;-68
2023/09/11 05:27:11;;;;;;;11.03;8.53;;;;;;;;;;5086344;28;20306;-68
2023/09/11 05:29:36;;;;;;;13.77;9.20;;;;;;;;;;5089381;28;20277;-67
2023/09/11 05:32:02;;;;;;;9.13;7.75;;;;;;;;;;5073945;28;20305;-67
2023/09/11 05:34:27;;;;;;;12.68;8.15;;;;;;;;;;5078931;28;20024;-67
2023/09/11 05:36:52;;;;;;;12.10;8.77;;;;;;;;;;5049628;28;20024;-67
2023/09/11 05:39:18;;;;;;;10.23;8.10;;;;;;;;;;5046573;28;20246;-68
2023/09/11 05:41:43;;;;;;;9.57;7.40;;;;;;;;;;5061144;28;20051;-67
2023/09/11 05:44:08;;;;;;;14.05;8.15;;;;;;;;;;5079980;28;20489;-67
2023/09/11 05:46:33;;;;;;;10.17;7.27;;;;;;;;;;5073049;28;20052;-68
2023/09/11 05:48:59;;;;;;;10.82;7.63;;;;;;;;;;5082308;28;20335;-67
2023/09/11 05:51:24;;;;;;;11.82;8.15;;;;;;;;;;5079610;28;20107;-67
2023/09/11 05:53:49;;;;;;;7.88;7.07;;;;;;;;;;5082253;28;20467;-68
2023/09/11 05:56:14;;;;;;;10.40;7.60;;;;;;;;;;5078623;28;20073;-68
2023/09/11 05:58:41;;;;;;;12.35;7.47;;;;;;;;;;5082539;28;20282;-68
2023/09/11 06:01:07;;;;;;;10.13;7.65;;;;;;;;;;5075322;28;20016;-67
2023/09/11 06:03:32;;;;;;;11.68;7.43;;;;;;;;;;5081700;28;20039;-68
2023/09/11 06:05:59;;;;;;;12.93;6.77;;;;;;;;;;5076924;28;20012;-67
2023/09/11 06:08:24;;;;;;;13.52;7.22;;;;;;;;;;5082901;28;20263;-67
2023/09/11 06:10:50;;;;;;;13.02;7.38;;;;;;;;;;5083988;28;20100;-68
2023/09/11 06:13:15;;;;;;;10.77;7.18;;;;;;;;;;5081236;28;20517;-67
2023/09/11 06:15:40;;;;;;;10.27;6.63;;;;;;;;;;5076893;28;20048;-68
2023/09/11 06:18:05;;;;;;;10.07;6.93;;;;;;;;;;5079576;28;20100;-67
2023/09/11 06:20:31;;;;;;;10.15;7.25;;;;;;;;;;5076510;28;20278;-67
2023/09/11 06:22:56;;;;;;;11.55;7.28;;;;;;;;;;5079801;28;20038;-67
2023/09/11 06:25:22;;;;;;;12.10;7.03;;;;;;;;;;5076843;28;20361;-67
2023/09/11 06:27:47;;;;;;;11.48;7.80;;;;;;;;;;5079744;28;20019;-67
2023/09/11 06:30:13;;;;;;;8.63;7.32;;;;;;;;;;5085712;28;20107;-66
2023/09/11 06:32:38;;;;;;;11.05;7.25;;;;;;;;;;5083553;28;20046;-67
2023/09/11 06:35:04;;;;;;;11.48;7.63;;;;;;;;;;5064474;28;20558;-67
2023/09/11 06:37:30;;;;;;;11.07;7.82;;;;;;;;;;5079446;28;20017;-67
2023/09/11 06:39:55;;;;;;;10.45;7.32;;;;;;;;;;5081254;28;20034;-68
2023/09/11 06:42:21;;;;;;;10.48;7.55;;;;;;;;;;5086975;28;20040;-67
2023/09/11 06:44:47;;;;;;;10.73;7.70;;;;;;;;;;5082576;28;20104;-67
2023/09/11 06:47:12;;;;;;;13.32;7.30;;;;;;;;;;5086611;28;20103;-67
2023/09/11 06:49:37;;;;;;;10.88;7.75;;;;;;;;;;5081907;28;20024;-67
2023/09/11 06:52:03;;;;;;;16.30;7.53;;;;;;;;;;5079417;28;20488;-68
2023/09/11 06:54:28;;;;;;;12.05;7.55;;;;;;;;;;5081580;28;20031;-67
2023/09/11 06:56:54;;;;;;;10.43;7.45;;;;;;;;;;5084735;28;20028;-67
2023/09/11 06:59:19;;;;;;;12.03;7.13;;;;;;;;;;5087482;28;20020;-67
2023/09/11 07:01:45;;;;;;;15.50;7.68;;;;;;;;;;5080701;28;20800;-68
2023/09/11 07:04:11;;;;;;;12.00;7.40;;;;;;;;;;5094067;28;20024;-68
2023/09/11 07:06:39;;;;;;;10.55;7.55;;;;;;;;;;5093019;28;20494;-66
2023/09/11 07:09:05;;;;;;;12.30;7.53;;;;;;;;;;5090879;28;20032;-67
2023/09/11 07:11:31;;;;;;;8.13;6.60;;;;;;;;;;5082639;28;20032;-67
2023/09/11 07:13:56;;;;;;;9.68;6.75;;;;;;;;;;5089467;28;20046;-67
2023/09/11 07:16:22;;;;;;;12.07;6.72;;;;;;;;;;5093210;28;20157;-67
2023/09/11 07:18:47;;;;;;;13.52;6.20;;;;;;;;;;5093465;28;20143;-66
2023/09/11 07:21:13;;;;;;;10.65;6.30;;;;;;;;;;5094022;28;20043;-67
2023/09/11 07:23:38;;;;;;;10.48;5.70;;;;;;;;;;5093681;28;20035;-67
2023/09/11 07:26:03;;;;;;;10.67;5.50;;;;;;;;;;5088347;28;20436;-67
2023/09/11 07:28:29;;;;;;;13.33;6.33;;;;;;;;;;5075506;28;20275;-67
2023/09/11 07:30:54;;;;;;;10.38;5.63;;;;;;;;;;5088541;28;20271;-68
2023/09/11 07:33:20;;;;;;;7.70;5.30;;;;;;;;;;5088188;28;20056;-67
2023/09/11 07:35:45;;;;;;;8.07;5.30;;;;;;;;;;5088849;28;20054;-66
2023/09/11 07:38:10;;;;;;;8.38;5.53;;;;;;;;;;5083815;28;20028;-66
2023/09/11 07:40:36;;;;;;;13.00;5.25;;;;;;;;;;5087855;28;20085;-69
2023/09/11 07:43:01;;;;;;;9.25;5.72;;;;;;;;;;5083998;28;20032;-66
2023/09/11 07:45:26;;;;;;;10.83;5.40;;;;;;;;;;5086998;28;20036;-66
2023/09/11 07:47:52;;;;;;;11.80;5.53;;;;;;;;;;5080406;28;20295;-66
2023/09/11 07:50:17;;;;;;;8.13;6.18;;;;;;;;;;5090792;28;20583;-66
2023/09/11 07:52:42;;;;;;;10.93;6.07;;;;;;;;;;5086471;28;20020;-66
2023/09/11 07:55:07;;;;;;;10.43;6.57;;;;;;;;;;5090556;28;20277;-67
2023/09/11 07:57:33;;;;;;;11.40;6.20;;;;;;;;;;5085604;28;20027;-67
2023/09/11 08:00:04;;;;;;;10.48;6.20;;;;;;;;;;5088346;28;20339;-67
2023/09/11 08:02:29;;;;;;;12.48;6.95;;;;;;;;;;5086255;28;20063;-66
2023/09/11 08:04:55;;;;;;;14.82;6.30;;;;;;;;;;5089957;28;20421;-67
2023/09/11 08:07:20;;;;;;;11.63;6.47;;;;;;;;;;5081555;28;20016;-67
2023/09/11 08:09:46;;;;;;;10.67;6.07;;;;;;;;;;5092613;28;20317;-67
2023/09/11 08:12:11;;;;;;;10.82;6.38;;;;;;;;;;5090559;28;20367;-66
2023/09/11 08:14:37;;;;;;;11.10;7.03;;;;;;;;;;5076193;28;20055;-66
2023/09/11 08:17:02;;;;;;;9.25;6.70;;;;;;;;;;5087105;28;20032;-66
2023/09/11 08:19:27;;;;;;;11.73;6.88;;;;;;;;;;5076098;28;20040;-66
2023/09/11 08:21:54;;;;;;;8.97;6.30;;;;;;;;;;5080390;28;20467;-66
2023/09/11 08:24:19;;;;;;;12.70;6.78;;;;;;;;;;5091972;28;20293;-67
2023/09/11 08:26:44;;;;;;;8.18;6.05;;;;;;;;;;5090756;28;20114;-67
2023/09/11 08:29:15;;;;;;;9.57;6.20;;;;;;;;;;5092271;28;20141;-67
2023/09/11 08:31:40;;;;;;;9.30;6.40;;;;;;;;;;5090556;28;20837;-66
2023/09/11 08:34:05;;;;;;;10.98;6.15;;;;;;;;;;5079782;28;20135;-66
2023/09/11 08:36:30;;;;;;;10.67;6.23;;;;;;;;;;5091714;28;20039;-66
2023/09/11 08:38:56;;;;;;;12.93;7.17;;;;;;;;;;5086186;28;20788;-66
2023/09/11 08:41:23;;;;;;;9.90;6.30;;;;;;;;;;5085398;28;20266;-66
2023/09/11 08:43:48;;;;;;;11.30;6.15;;;;;;;;;;5078522;28;20285;-67
2023/09/11 08:46:15;;;;;;;11.07;7.18;;;;;;;;;;5090760;28;20031;-66
2023/09/11 08:48:42;;;;;;;12.27;6.80;;;;;;;;;;5074064;28;20067;-67
2023/09/11 08:51:11;;;;;;;12.45;6.78;;;;;;;;;;5084133;28;20028;-65
2023/09/11 08:53:38;;;;;;;10.55;6.88;;;;;;;;;;5079418;28;20081;-65
2023/09/11 08:56:04;;;;;;;10.45;6.50;;;;;;;;;;5065019;28;20360;-65
2023/09/11 08:58:30;;;;;;;11.75;7.32;;;;;;;;;;5089683;28;20028;-65
2023/09/11 09:00:56;;;;;;;11.13;7.07;;;;;;;;;;5091836;28;20024;-65
2023/09/11 09:03:23;;;;;;;10.07;7.13;;;;;;;;;;5076324;28;20029;-65
2023/09/11 09:05:49;;;;;;;8.70;6.13;;;;;;;;;;5089295;28;20103;-65
2023/09/11 09:08:15;;;;;;;10.43;6.72;;;;;;;;;;5088023;28;20456;-66
2023/09/11 09:10:41;;;;;;;14.57;7.30;;;;;;;;;;5076942;28;20112;-66
2023/09/11 09:13:06;;;;;;;10.63;6.85;;;;;;;;;;5091431;28;20111;-66
2023/09/11 09:15:33;;;;;;;8.98;5.93;;;;;;;;;;5089095;28;20387;-67
2023/09/11 09:18:00;;;;;;;9.57;7.05;;;;;;;;;;5092383;28;20032;-67
2023/09/11 09:20:26;;;;;;;12.68;6.55;;;;;;;;;;5085740;28;20374;-66
2023/09/11 09:22:55;;;;;;;8.07;6.03;;;;;;;;;;5081181;28;20040;-66
2023/09/11 09:25:21;;;;;;;10.25;6.68;;;;;;;;;;5087037;28;20021;-67
2023/09/11 09:27:47;;;;;;;10.65;6.60;;;;;;;;;;5090658;28;20028;-66
2023/09/11 09:30:21;;;;;;;9.95;6.35;;;;;;;;;;5089901;28;20024;-66
2023/09/11 09:32:48;;;;;;;9.93;6.35;;;;;;;;;;5090169;28;20036;-66
2023/09/11 09:35:13;;;;;;;12.30;6.72;;;;;;;;;;5087055;28;20028;-66
2023/09/11 09:37:39;;;;;;;8.07;6.13;;;;;;;;;;5082253;28;20040;-66
2023/09/11 09:40:04;;;;;;;11.05;6.30;;;;;;;;;;5087562;28;20107;-66
2023/09/11 09:42:40;;;;;;;7.13;5.57;;;;;;;;;;5090664;28;20063;-67
2023/09/11 09:45:05;;;;;;;9.02;5.70;;;;;;;;;;5086244;28;20024;-66
2023/09/11 09:47:31;;;;;;;7.40;5.85;;;;;;;;;;5072642;28;20062;-66
2023/09/11 09:49:57;;;;;;;9.27;5.40;;;;;;;;;;5072449;28;20050;-66
2023/09/11 09:52:25;;;;;;;7.57;5.80;;;;;;;;;;5072395;28;20332;-67
2023/09/11 09:55:08;;;;;;;7.90;5.80;;;;;;;;;;5074052;28;20093;-66
2023/09/11 09:57:34;;;;;;;12.25;5.80;;;;;;;;;;5084759;28;20031;-67
2023/09/11 09:59:59;;;;;;;9.90;5.60;;;;;;;;;;5086772;28;20020;-67
2023/09/11 10:02:29;;;;;;;6.43;5.03;;;;;;;;;;5091098;28;20394;-67
2023/09/11 10:04:55;;;;;;;10.57;5.50;;;;;;;;;;5076171;28;20029;-67
2023/09/11 10:07:39;;;;;;;8.63;5.45;;;;;;;;;;5089417;28;20047;-67
2023/09/11 10:10:24;;;;;;;8.70;5.38;;;;;;;;;;5087937;28;20032;-67
2023/09/11 10:12:58;;;;;;;7.55;5.05;;;;;;;;;;5079774;28;21248;-66
2023/09/11 10:15:24;;;;;;;9.18;4.90;;;;;;;;;;5089643;28;20591;-67
2023/09/11 10:17:52;;;;;;;9.73;5.78;;;;;;;;;;5086802;28;20062;-67
2023/09/11 10:20:17;;;;;;;7.13;4.90;;;;;;;;;;5071089;28;20032;-67
2023/09/11 10:22:42;;;;;;;7.80;4.57;;;;;;;;;;5087671;28;20382;-68
2023/09/11 10:25:08;;;;;;;7.73;4.97;;;;;;;;;;5091788;28;20134;-67
2023/09/11 10:27:33;;;;;;;7.10;4.82;;;;;;;;;;5076066;28;20768;-67
2023/09/11 10:30:06;;;;;;;6.45;4.43;;;;;;;;;;5078367;28;20024;-67
2023/09/11 10:32:41;;;;;;;7.35;4.78;;;;;;;;;;5072710;28;20032;-68
2023/09/11 10:35:08;;;;;;;7.85;5.22;;;;;;;;;;5072461;28;20089;-67
2023/09/11 10:37:35;;;;;;;6.55;4.43;;;;;;;;;;5086342;28;20031;-66
2023/09/11 10:40:00;;;;;;;7.07;4.35;;;;;;;;;;5090069;28;20395;-66
2023/09/11 10:42:26;;;;;;;7.45;4.50;;;;;;;;;;5089877;28;20024;-67
2023/09/11 10:44:54;;;;;;;5.93;4.50;;;;;;;;;;5089556;28;20489;-66
2023/09/11 10:47:19;;;;;;;6.70;4.45;;;;;;;;;;5089107;28;20107;-67
2023/09/11 10:49:48;;;;;;;7.88;4.70;;;;;;;;;;5090550;28;20103;-67
2023/09/11 10:52:13;;;;;;;7.60;4.75;;;;;;;;;;5085168;28;20103;-67
2023/09/11 10:54:39;;;;;;;6.65;4.80;;;;;;;;;;5073348;28;20107;-67
2023/09/11 10:57:05;;;;;;;7.38;4.88;;;;;;;;;;5076361;28;20020;-67
2023/09/11 10:59:31;;;;;;;6.60;4.73;;;;;;;;;;5082111;28;20136;-67
2023/09/11 11:01:56;;;;;;;6.55;4.88;;;;;;;;;;5077364;28;20286;-67
2023/09/11 11:04:23;;;;;;;7.15;4.93;;;;;;;;;;5081124;28;20051;-67
2023/09/11 11:06:51;;;;;;;7.65;4.53;;;;;;;;;;5042460;28;20082;-67
2023/09/11 11:09:29;;;;;;;6.40;5.10;;;;;;;;;;5018538;28;20028;-67
2023/09/11 11:11:58;;;;;;;6.70;4.97;;;;;;;;;;5081958;28;20031;-67
2023/09/11 11:14:24;;;;;;;5.47;3.88;;;;;;;;;;5077776;28;20020;-67
2023/09/11 11:16:55;;;;;;;6.53;4.75;;;;;;;;;;5087974;28;20032;-67
2023/09/11 11:19:31;;;;;;;9.88;4.50;;;;;;;;;;5077918;28;20431;-66
2023/09/11 11:21:56;;;;;;;10.13;5.28;;;;;;;;;;5084856;28;20036;-67
2023/09/11 11:24:24;;;;;;;6.78;4.63;;;;;;;;;;5085391;28;20024;-67
2023/09/11 11:27:00;;;;;;;5.32;4.68;;;;;;;;;;5086457;28;20036;-67
2023/09/11 11:29:26;;;;;;;7.40;5.32;;;;;;;;;;5087878;28;20031;-68
2023/09/11 11:31:55;;;;;;;9.10;4.82;;;;;;;;;;5085223;28;20612;-68
2023/09/11 11:34:29;;;;;;;9.40;4.50;;;;;;;;;;5087878;28;20024;-67
2023/09/11 11:36:58;;;;;;;7.50;4.68;;;;;;;;;;5083676;28;20032;-66
2023/09/11 11:39:23;;;;;;;6.28;4.13;;;;;;;;;;5088895;28;20031;-68
2023/09/11 11:41:49;;;;;;;6.50;4.40;;;;;;;;;;5087354;28;20036;-68
2023/09/11 11:44:16;;;;;;;7.95;4.28;;;;;;;;;;5089370;28;20078;-66
2023/09/11 11:46:42;;;;;;;8.18;4.70;;;;;;;;;;5085993;28;20025;-66
2023/09/11 11:49:08;;;;;;;4.93;4.27;;;;;;;;;;5089183;28;20545;-66
2023/09/11 11:51:33;;;;;;;4.97;4.00;;;;;;;;;;5087570;28;20270;-65
2023/09/11 11:53:59;;;;;;;7.75;4.30;;;;;;;;;;5084633;28;20042;-66
2023/09/11 11:56:25;;;;;;;8.30;4.28;;;;;;;;;;5089965;28;20026;-67
2023/09/11 11:58:53;;;;;;;7.90;4.28;;;;;;;;;;5084270;28;20494;-67
2023/09/11 12:01:18;;;;;;;7.78;4.15;;;;;;;;;;5068298;28;20811;-66
2023/09/11 12:03:50;;;;;;;6.10;3.97;;;;;;;;;;5054925;28;20106;-66
2023/09/11 12:06:16;;;;;;;5.93;4.18;;;;;;;;;;5079908;28;20027;-66
2023/09/11 12:08:42;;;;;;;6.97;4.15;;;;;;;;;;5086879;28;20032;-66
2023/09/11 12:11:08;;;;;;;7.28;4.43;;;;;;;;;;5080126;28;20028;-66
2023/09/11 12:13:33;;;;;;;8.13;4.32;;;;;;;;;;5093516;28;20650;-66
2023/09/11 12:15:59;;;;;;;5.63;4.30;;;;;;;;;;5074332;28;20085;-67
2023/09/11 12:18:25;;;;;;;5.32;4.00;;;;;;;;;;5092630;28;20106;-66
2023/09/11 12:20:51;;;;;;;6.53;3.90;;;;;;;;;;5088983;28;20027;-65
2023/09/11 12:23:17;;;;;;;6.63;4.22;;;;;;;;;;5086629;28;20036;-63
2023/09/11 12:25:42;;;;;;;5.40;3.53;;;;;;;;;;5083110;28;20494;-66
2023/09/11 12:28:07;;;;;;;6.53;4.07;;;;;;;;;;5088109;28;20039;-66
2023/09/11 12:30:33;;;;;;;6.22;4.25;;;;;;;;;;5087711;28;20099;-65
2023/09/11 12:32:58;;;;;;;5.83;4.27;;;;;;;;;;5088108;28;20015;-65
2023/09/11 12:35:32;;;;;;;5.67;4.33;;;;;;;;;;5087983;28;20614;-65
2023/09/11 12:37:58;;;;;;;5.25;4.35;;;;;;;;;;5088855;28;20026;-65
2023/09/11 12:40:23;;;;;;;4.10;3.60;;;;;;;;;;5089378;28;20024;-65
2023/09/11 12:42:48;;;;;;;5.97;4.20;;;;;;;;;;5081718;28;20282;-65
2023/09/11 12:45:13;;;;;;;6.47;4.33;;;;;;;;;;5081887;28;20024;-65
2023/09/11 12:47:39;;;;;;;8.10;4.30;;;;;;;;;;5087617;28;20039;-66
2023/09/11 12:50:05;;;;;;;8.65;4.25;;;;;;;;;;5089093;28;20274;-67
2023/09/11 12:52:30;;;;;;;7.78;3.88;;;;;;;;;;5088107;28;20048;-66
2023/09/11 12:54:56;;;;;;;5.40;4.40;;;;;;;;;;5084683;28;20055;-66
2023/09/11 12:57:21;;;;;;;4.67;3.67;;;;;;;;;;5085935;28;20471;-66
2023/09/11 12:59:46;;;;;;;6.13;4.97;;;;;;;;;;5090758;28;20266;-66
2023/09/11 13:02:12;;;;;;;6.17;4.57;;;;;;;;;;5090030;28;20325;-66
2023/09/11 13:04:39;;;;;;;6.73;4.77;;;;;;;;;;5086508;28;20051;-65
2023/09/11 13:07:06;;;;;;;6.32;4.68;;;;;;;;;;5085775;28;20282;-66
2023/09/11 13:09:32;;;;;;;5.57;4.70;;;;;;;;;;5082720;28;20052;-66
2023/09/11 13:11:58;;;;;;;7.82;4.28;;;;;;;;;;5083180;28;20016;-66
2023/09/11 13:14:23;;;;;;;7.90;4.43;;;;;;;;;;5088474;28;20026;-66
2023/09/11 13:16:48;;;;;;;7.27;4.87;;;;;;;;;;5090765;28;20020;-65
2023/09/11 13:19:14;;;;;;;7.65;4.70;;;;;;;;;;5087531;28;20021;-64
2023/09/11 13:21:39;;;;;;;5.30;4.50;;;;;;;;;;5078977;28;20028;-66
2023/09/11 13:24:04;;;;;;;6.53;3.78;;;;;;;;;;5087900;28;20432;-66
2023/09/11 13:26:30;;;;;;;5.65;4.00;;;;;;;;;;5081613;28;20035;-66
2023/09/11 13:28:55;;;;;;;6.57;3.97;;;;;;;;;;5089198;28;21154;-66
2023/09/11 13:31:20;;;;;;;5.83;4.27;;;;;;;;;;5091131;28;20032;-66
2023/09/11 13:33:45;;;;;;;6.33;5.03;;;;;;;;;;5087974;28;20020;-65
2023/09/11 13:36:11;;;;;;;6.90;4.15;;;;;;;;;;5086280;28;20266;-65
2023/09/11 13:38:37;;;;;;;8.57;4.85;;;;;;;;;;5087313;28;21295;-66
2023/09/11 13:41:02;;;;;;;7.07;5.05;;;;;;;;;;5078383;28;20470;-66
2023/09/11 13:43:28;;;;;;;6.80;4.30;;;;;;;;;;5082609;28;20028;-66
2023/09/11 13:45:53;;;;;;;6.60;4.10;;;;;;;;;;5088234;28;20027;-66
2023/09/11 13:48:18;;;;;;;5.57;4.30;;;;;;;;;;5086457;28;20262;-66
2023/09/11 13:50:43;;;;;;;5.93;4.27;;;;;;;;;;5089013;28;20028;-66
2023/09/11 13:53:08;;;;;;;4.57;3.83;;;;;;;;;;5085446;28;20277;-66
2023/09/11 13:55:34;;;;;;;8.27;4.57;;;;;;;;;;5084009;28;20279;-65
2023/09/11 13:57:59;;;;;;;6.05;4.53;;;;;;;;;;5076990;28;20059;-65
2023/09/11 14:00:24;;;;;;;8.17;4.70;;;;;;;;;;5086783;28;20020;-66
2023/09/11 14:02:50;;;;;;;8.25;4.38;;;;;;;;;;5088644;28;20294;-65
2023/09/11 14:05:15;;;;;;;6.83;4.30;;;;;;;;;;5079536;28;20464;-66
2023/09/11 14:07:40;;;;;;;5.57;4.10;;;;;;;;;;5085960;28;20270;-65
2023/09/11 14:10:06;;;;;;;12.47;4.43;;;;;;;;;;5091500;28;20043;-65
2023/09/11 14:12:31;;;;;;;5.72;4.00;;;;;;;;;;5086708;28;20373;-66
2023/09/11 14:14:56;;;;;;;6.07;3.27;;;;;;;;;;5081201;28;20153;-66
2023/09/11 14:17:21;;;;;;;6.53;4.07;;;;;;;;;;5083533;28;20278;-66
2023/09/11 14:19:47;;;;;;;5.10;4.00;;;;;;;;;;5083147;28;20285;-66
2023/09/11 14:22:12;;;;;;;6.47;3.83;;;;;;;;;;5079134;28;20032;-66
2023/09/11 14:24:39;;;;;;;5.27;4.13;;;;;;;;;;5082909;28;20494;-66
2023/09/11 14:27:04;;;;;;;9.15;3.75;;;;;;;;;;5088214;28;20281;-66
2023/09/11 14:29:29;;;;;;;4.38;3.40;;;;;;;;;;5073936;28;20041;-65